Arrantzale — EBVT — position and weather

sailwx.info

Track history (hours):
 
Tides and Currents Weather Stations Pressure Air Temp Water Temp Dewpoint Dewpoint Depression Visibility Wind Speed Wind Dir Waves Ship Positions

Arrantzale

Last reported at 2016-Apr-30 06:11 UTC. Time now 2016-Apr-30 15:02 UTC.
Position N 43°23' W 001°48'.

Length 32 m.

Type: Fishing. MMSI: 224065290.

Date/timePositionNaut miles runAvg speedWind from/ knotsBaromVisibWave heightAir tempDewpointWater temp
2016-Apr-30 06:11N 43°23' W 001°48'0 0.0
2016-Apr-28 17:31N 43°23' W 001°48'0 0.0
2016-Apr-28 16:32N 43°23' W 001°48'0 0.0
2016-Apr-28 15:32N 43°23' W 001°48'0 0.0
2016-Apr-27 15:33N 43°23' W 001°47'0 0.3
2016-Apr-27 14:33N 43°23' W 001°47'0 0.0
2016-Apr-27 13:33N 43°23' W 001°47'0 0.0
2016-Apr-27 12:33N 43°23' W 001°47'0 0.0
2016-Apr-27 11:33N 43°23' W 001°47'0 0.0
2016-Apr-27 10:33N 43°23' W 001°47'0 0.0
2016-Apr-27 09:33N 43°23' W 001°47'0 0.0
2016-Apr-27 08:33N 43°23' W 001°47'0 0.1
2016-Apr-27 07:19N 43°23' W 001°47'0 0.1
2016-Apr-27 06:33N 43°23' W 001°48'0 0.0
2016-Apr-27 05:18N 43°23' W 001°48'3 0.2
2016-Apr-26 14:33N 43°25' W 001°50'3 2.6
2016-Apr-26 13:33N 43°23' W 001°48'0 0.0
2016-Apr-26 12:29N 43°23' W 001°48'0 0.0
2016-Apr-26 11:25N 43°23' W 001°48'0 0.2
2016-Apr-26 10:33N 43°23' W 001°47'0 0.1
2016-Apr-26 09:33N 43°23' W 001°48'0 0.0
2016-Apr-26 08:29N 43°23' W 001°48'1 0.1
2016-Apr-25 19:32N 43°24' W 001°48'1 1.0
2016-Apr-25 18:20N 43°23' W 001°48'3 0.8
2016-Apr-25 14:31N 43°26' W 001°50'3 2.6
2016-Apr-25 13:19N 43°23' W 001°48'6 0.9
2016-Apr-25 07:24N 43°29' W 001°50'6 6.6
2016-Apr-25 06:33N 43°23' W 001°48'  
2016-Apr-22 10:16N 43°23' W 001°47'0 0.2
2016-Apr-22 09:33N 43°23' W 001°48'0 0.0
2016-Apr-22 08:32N 43°23' W 001°48'0 0.0
2016-Apr-22 07:33N 43°23' W 001°48'0 0.0
2016-Apr-22 06:33N 43°23' W 001°48'0 0.0
2016-Apr-22 05:31N 43°23' W 001°48'7 4.6
2016-Apr-22 04:04N 43°30' W 001°49'0 0.1
2016-Apr-22 02:31N 43°30' W 001°49'1 0.7
2016-Apr-22 01:32N 43°30' W 001°48'5 4.8
2016-Apr-22 00:33N 43°33' W 001°44'4 3.3
2016-Apr-21 23:22N 43°31' W 001°47'6 0.7
2016-Apr-21 14:33N 43°25' W 001°48'2 1.7
2016-Apr-21 13:33N 43°23' W 001°48'0 0.0
2016-Apr-21 12:33N 43°23' W 001°48'0 0.0
2016-Apr-21 11:33N 43°23' W 001°48'0 0.0
2016-Apr-21 10:33N 43°23' W 001°48'0 0.0
2016-Apr-21 09:33N 43°23' W 001°48'0 0.0
2016-Apr-21 08:32N 43°23' W 001°48'0 0.1
2016-Apr-21 07:32N 43°23' W 001°47'0 0.0
2016-Apr-21 06:33N 43°23' W 001°48'12 4.0
2016-Apr-21 03:33N 43°31' W 002°00'2 1.7
2016-Apr-21 02:26N 43°30' W 002°02'0 0.2
2016-Apr-21 01:33N 43°30' W 002°03'2 2.3
2016-Apr-21 00:32N 43°31' W 002°06'3 3.3
2016-Apr-20 23:31N 43°34' W 002°05'16 1.8
2016-Apr-20 14:33N 43°24' W 001°47'1 1.3
2016-Apr-20 13:33N 43°23' W 001°48'0 0.0
2016-Apr-20 12:32N 43°23' W 001°48'0 0.0
2016-Apr-20 11:33N 43°23' W 001°48'0 0.0
2016-Apr-20 10:33N 43°23' W 001°48'0 0.0
2016-Apr-20 09:18N 43°23' W 001°48'0 0.0
2016-Apr-20 06:25N 43°23' W 001°48'  
Track history (hours):
 
Tides and Currents Weather Stations Pressure Air Temp Water Temp Dewpoint Dewpoint Depression Visibility Wind Speed Wind Dir Waves Ship Positions

Arrantzale

Last reported at 2016-Apr-30 06:11 UTC. Time now 2016-Apr-30 15:02 UTC.
Position N 43°23' W 001°48'.

Length 32 m.

Type: Fishing. MMSI: 224065290.

Date/timePositionNaut miles runAvg speedWind from/ knotsBaromVisibWave heightAir tempDewpointWater temp
2016-Apr-30 06:11N 43°23' W 001°48'0 0.0
2016-Apr-28 17:31N 43°23' W 001°48'0 0.0
2016-Apr-28 16:32N 43°23' W 001°48'0 0.0
2016-Apr-28 15:32N 43°23' W 001°48'0 0.0
2016-Apr-27 15:33N 43°23' W 001°47'0 0.3
2016-Apr-27 14:33N 43°23' W 001°47'0 0.0
2016-Apr-27 13:33N 43°23' W 001°47'0 0.0
2016-Apr-27 12:33N 43°23' W 001°47'0 0.0
2016-Apr-27 11:33N 43°23' W 001°47'0 0.0
2016-Apr-27 10:33N 43°23' W 001°47'0 0.0
2016-Apr-27 09:33N 43°23' W 001°47'0 0.0
2016-Apr-27 08:33N 43°23' W 001°47'0 0.1
2016-Apr-27 07:19N 43°23' W 001°47'0 0.1
2016-Apr-27 06:33N 43°23' W 001°48'0 0.0
2016-Apr-27 05:18N 43°23' W 001°48'3 0.2
2016-Apr-26 14:33N 43°25' W 001°50'3 2.6
2016-Apr-26 13:33N 43°23' W 001°48'0 0.0
2016-Apr-26 12:29N 43°23' W 001°48'0 0.0
2016-Apr-26 11:25N 43°23' W 001°48'0 0.2
2016-Apr-26 10:33N 43°23' W 001°47'0 0.1
2016-Apr-26 09:33N 43°23' W 001°48'0 0.0
2016-Apr-26 08:29N 43°23' W 001°48'1 0.1
2016-Apr-25 19:32N 43°24' W 001°48'1 1.0
2016-Apr-25 18:20N 43°23' W 001°48'3 0.8
2016-Apr-25 14:31N 43°26' W 001°50'3 2.6
2016-Apr-25 13:19N 43°23' W 001°48'6 0.9
2016-Apr-25 07:24N 43°29' W 001°50'6 6.6
2016-Apr-25 06:33N 43°23' W 001°48'  
2016-Apr-22 10:16N 43°23' W 001°47'0 0.2
2016-Apr-22 09:33N 43°23' W 001°48'0 0.0
2016-Apr-22 08:32N 43°23' W 001°48'0 0.0
2016-Apr-22 07:33N 43°23' W 001°48'0 0.0
2016-Apr-22 06:33N 43°23' W 001°48'0 0.0
2016-Apr-22 05:31N 43°23' W 001°48'7 4.6
2016-Apr-22 04:04N 43°30' W 001°49'0 0.1
2016-Apr-22 02:31N 43°30' W 001°49'1 0.7
2016-Apr-22 01:32N 43°30' W 001°48'5 4.8
2016-Apr-22 00:33N 43°33' W 001°44'4 3.3
2016-Apr-21 23:22N 43°31' W 001°47'6 0.7
2016-Apr-21 14:33N 43°25' W 001°48'2 1.7
2016-Apr-21 13:33N 43°23' W 001°48'0 0.0
2016-Apr-21 12:33N 43°23' W 001°48'0 0.0
2016-Apr-21 11:33N 43°23' W 001°48'0 0.0
2016-Apr-21 10:33N 43°23' W 001°48'0 0.0
2016-Apr-21 09:33N 43°23' W 001°48'0 0.0
2016-Apr-21 08:32N 43°23' W 001°48'0 0.1
2016-Apr-21 07:32N 43°23' W 001°47'0 0.0
2016-Apr-21 06:33N 43°23' W 001°48'12 4.0
2016-Apr-21 03:33N 43°31' W 002°00'2 1.7
2016-Apr-21 02:26N 43°30' W 002°02'0 0.2
2016-Apr-21 01:33N 43°30' W 002°03'2 2.3
2016-Apr-21 00:32N 43°31' W 002°06'3 3.3
2016-Apr-20 23:31N 43°34' W 002°05'16 1.8
2016-Apr-20 14:33N 43°24' W 001°47'1 1.3
2016-Apr-20 13:33N 43°23' W 001°48'0 0.0
2016-Apr-20 12:32N 43°23' W 001°48'0 0.0
2016-Apr-20 11:33N 43°23' W 001°48'0 0.0
2016-Apr-20 10:33N 43°23' W 001°48'0 0.0
2016-Apr-20 09:18N 43°23' W 001°48'0 0.0
2016-Apr-20 06:25N 43°23' W 001°48'  

Dump ship's entire track history